createdAt,value
2023-03-14T00:00:19.680Z,97332.63
2023-03-14T00:02:46.372Z,97316.97
2023-03-14T00:05:13.022Z,97317.81
2023-03-14T00:07:40.714Z,97306.59
2023-03-14T00:10:10.585Z,97291.22
2023-03-14T00:12:37.692Z,97287.31
2023-03-14T00:15:07.903Z,97287.47
2023-03-14T00:17:37.036Z,97272.28
2023-03-14T00:20:04.174Z,97289.34
2023-03-14T00:22:30.812Z,97287.81
2023-03-14T00:24:57.389Z,97296.28
2023-03-14T00:27:24.048Z,97307.41
2023-03-14T00:29:50.615Z,97309.94
2023-03-14T00:32:17.294Z,97321.38
2023-03-14T00:34:45.364Z,97320.66
2023-03-14T00:37:11.993Z,97325.09
2023-03-14T00:39:38.760Z,97324.25
2023-03-14T00:42:05.501Z,97330.06
2023-03-14T00:44:32.523Z,97343.50
2023-03-14T00:46:59.637Z,97349.34
2023-03-14T00:49:26.928Z,97400.31
2023-03-14T00:51:54.970Z,97393.84
2023-03-14T00:54:22.068Z,97374.72
2023-03-14T00:56:48.818Z,97375.06
2023-03-14T00:59:16.913Z,97376.28
2023-03-14T01:01:44.187Z,97373.66
2023-03-14T01:04:11.153Z,97377.19
2023-03-14T01:06:37.785Z,97360.69
2023-03-14T01:09:05.802Z,97367.19
2023-03-14T01:11:33.981Z,97356.72
2023-03-14T01:14:01.280Z,97354.34
2023-03-14T01:16:31.727Z,97364.72
2023-03-14T01:18:58.326Z,97346.91
2023-03-14T01:21:27.075Z,97357.06
2023-03-14T01:23:55.672Z,97363.88
2023-03-14T01:26:26.332Z,97371.56
2023-03-14T01:28:54.836Z,97377.63
2023-03-14T01:31:21.507Z,97352.00
2023-03-14T01:33:48.284Z,97350.00
2023-03-14T01:36:15.549Z,97332.41
2023-03-14T01:38:42.745Z,97344.03
2023-03-14T01:41:15.101Z,97327.56
2023-03-14T01:43:43.064Z,97335.09
2023-03-14T01:46:26.053Z,97324.41
2023-03-14T01:48:58.279Z,97338.31
2023-03-14T01:51:30.830Z,97329.16
2023-03-14T01:54:05.969Z,97339.34
2023-03-14T01:56:32.915Z,97325.47
2023-03-14T01:59:05.304Z,97337.69
2023-03-14T02:01:31.899Z,97317.75
2023-03-14T02:04:02.584Z,97312.66
2023-03-14T02:06:35.721Z,97301.75
2023-03-14T02:09:03.218Z,97312.97
2023-03-14T02:11:30.869Z,97322.00
2023-03-14T02:13:59.320Z,97315.69
2023-03-14T02:16:27.346Z,97303.78
2023-03-14T02:18:54.387Z,97304.31
2023-03-14T02:21:27.223Z,97318.72
2023-03-14T02:24:03.587Z,97314.00
2023-03-14T02:26:35.505Z,97313.84
2023-03-14T02:29:04.137Z,97324.41
2023-03-14T02:31:30.931Z,97310.47
2023-03-14T02:33:58.559Z,97311.22
2023-03-14T02:36:25.746Z,97334.09
2023-03-14T02:38:56.956Z,97330.28
2023-03-14T02:41:23.509Z,97320.53
2023-03-14T02:43:50.203Z,97314.34
2023-03-14T02:46:21.256Z,97324.22
2023-03-14T02:48:51.146Z,97317.16
2023-03-14T02:51:17.962Z,97318.25
2023-03-14T02:53:44.515Z,97307.53
2023-03-14T02:56:11.762Z,97304.31
2023-03-14T02:58:38.622Z,97304.50
2023-03-14T03:01:05.948Z,97301.41
2023-03-14T03:03:33.959Z,97299.69
2023-03-14T03:06:00.838Z,97303.13
2023-03-14T03:08:28.490Z,97295.44
2023-03-14T03:10:55.648Z,97298.69
2023-03-14T03:13:22.270Z,97294.91
2023-03-14T03:15:48.903Z,97278.34
2023-03-14T03:18:15.910Z,97278.94
2023-03-14T03:20:43.895Z,97266.91
2023-03-14T03:23:10.609Z,97282.56
2023-03-14T03:25:37.228Z,97266.16
2023-03-14T03:28:04.511Z,97267.22
2023-03-14T03:30:31.162Z,97274.72
2023-03-14T03:32:57.838Z,97268.91
2023-03-14T03:35:24.499Z,97263.28
2023-03-14T03:37:52.461Z,97276.56
2023-03-14T03:40:19.014Z,97278.66
2023-03-14T03:42:45.713Z,97280.06
2023-03-14T03:45:12.313Z,97273.72
2023-03-14T03:47:38.942Z,97269.66
2023-03-14T03:50:06.628Z,97277.00
2023-03-14T03:52:33.509Z,97276.59
2023-03-14T03:55:01.972Z,97262.88
2023-03-14T03:57:28.637Z,97270.06
2023-03-14T03:59:55.272Z,97261.31
2023-03-14T04:02:21.843Z,97273.34
2023-03-14T04:04:48.535Z,97261.34
2023-03-14T04:07:15.212Z,97257.47
2023-03-14T04:09:41.988Z,97247.56
2023-03-14T04:12:09.927Z,97247.69
2023-03-14T04:14:36.510Z,97251.81
2023-03-14T04:17:03.078Z,97251.06
2023-03-14T04:19:29.642Z,97248.81
2023-03-14T04:21:56.355Z,97235.63
2023-03-14T04:24:22.951Z,97228.00
2023-03-14T04:26:49.449Z,97223.63
2023-03-14T04:29:17.516Z,97223.03
2023-03-14T04:31:44.091Z,97214.03
2023-03-14T04:34:10.794Z,97210.56
2023-03-14T04:36:39.744Z,97206.00
2023-03-14T04:39:06.909Z,97186.28
2023-03-14T04:41:33.487Z,97202.44
2023-03-14T04:44:00.110Z,97198.31
2023-03-14T04:46:28.111Z,97200.72
2023-03-14T04:48:54.685Z,97196.16
2023-03-14T04:51:21.354Z,97208.91
2023-03-14T04:53:48.047Z,97211.63
2023-03-14T04:56:14.553Z,97213.03
2023-03-14T04:58:41.148Z,97204.88
2023-03-14T05:01:08.364Z,97204.72
2023-03-14T05:03:36.254Z,97205.91
2023-03-14T05:06:02.942Z,97190.75
2023-03-14T05:08:29.517Z,97197.53
2023-03-14T05:10:56.518Z,97190.91
2023-03-14T05:13:23.729Z,97181.53
2023-03-14T05:15:51.013Z,97177.28
2023-03-14T05:18:17.618Z,97171.13
2023-03-14T05:20:45.597Z,97163.66
2023-03-14T05:23:14.890Z,97162.47
2023-03-14T05:25:43.866Z,97163.31
2023-03-14T05:28:10.407Z,97161.81
2023-03-14T05:30:36.996Z,97153.63
2023-03-14T05:33:03.608Z,97152.09
2023-03-14T05:35:30.268Z,97147.16
2023-03-14T05:37:58.192Z,97153.47
2023-03-14T05:40:24.862Z,97146.66
2023-03-14T05:42:51.524Z,97151.41
2023-03-14T05:45:18.086Z,97160.44
2023-03-14T05:47:44.794Z,97153.63
2023-03-14T05:50:11.773Z,97147.16
2023-03-14T05:52:38.783Z,97141.00
2023-03-14T05:55:07.504Z,97146.78
2023-03-14T05:57:34.295Z,97144.91
2023-03-14T06:00:00.838Z,97140.16
2023-03-14T06:02:27.507Z,97135.88
2023-03-14T06:04:54.137Z,97133.31
2023-03-14T06:07:20.768Z,97142.69
2023-03-14T06:09:47.389Z,97141.84
2023-03-14T06:12:15.392Z,97154.94
2023-03-14T06:14:42.120Z,97148.50
2023-03-14T06:17:08.769Z,97146.78
2023-03-14T06:19:35.481Z,97146.78
2023-03-14T06:22:02.035Z,97154.44
2023-03-14T06:24:28.668Z,97157.34
2023-03-14T06:26:55.208Z,97156.16
2023-03-14T06:29:23.220Z,97151.22
2023-03-14T06:31:49.782Z,97153.97
2023-03-14T06:34:16.328Z,97145.75
2023-03-14T06:36:42.951Z,97156.16
2023-03-14T06:39:09.406Z,97150.34
2023-03-14T06:41:35.982Z,97151.00
2023-03-14T06:44:02.621Z,97149.88
2023-03-14T06:46:30.504Z,97152.38
2023-03-14T06:48:57.262Z,97153.63
2023-03-14T06:51:24.025Z,97161.22
2023-03-14T06:53:50.993Z,97168.09
2023-03-14T06:56:17.596Z,97167.06
2023-03-14T06:58:44.227Z,97174.47
2023-03-14T07:01:21.224Z,97172.47
2023-03-14T07:03:49.195Z,97171.28
2023-03-14T07:06:16.219Z,97168.19
2023-03-14T07:08:42.845Z,97176.69
2023-03-14T07:11:09.682Z,97166.84
2023-03-14T07:13:36.256Z,97171.59
2023-03-14T07:16:02.844Z,97175.50
2023-03-14T07:18:29.521Z,97173.16
2023-03-14T07:20:57.418Z,97170.25
2023-03-14T07:23:24.123Z,97183.38
2023-03-14T07:25:50.770Z,97177.75
2023-03-14T07:28:17.577Z,97179.78
2023-03-14T07:30:44.317Z,97179.63
2023-03-14T07:33:11.599Z,97185.78
2023-03-14T07:35:38.411Z,97183.72
2023-03-14T07:38:06.386Z,97189.63
2023-03-14T07:40:32.950Z,97194.59
2023-03-14T07:42:59.579Z,97185.00
2023-03-14T07:45:28.401Z,97184.31
2023-03-14T07:47:55.286Z,97177.19
2023-03-14T07:50:21.880Z,97186.88
2023-03-14T07:52:48.412Z,97194.50
2023-03-14T07:55:16.767Z,97200.53
2023-03-14T07:57:43.370Z,97191.53
2023-03-14T08:00:11.202Z,97191.81
2023-03-14T08:02:37.828Z,97196.47
2023-03-14T08:05:04.943Z,97201.38
2023-03-14T08:07:31.489Z,97202.47
2023-03-14T08:09:58.117Z,97194.34
2023-03-14T08:12:25.987Z,97202.09
2023-03-14T08:14:52.663Z,97205.41
2023-03-14T08:17:19.229Z,97191.28
2023-03-14T08:19:45.826Z,97198.25
2023-03-14T08:22:12.578Z,97196.06
2023-03-14T08:24:39.398Z,97196.84
2023-03-14T08:27:07.370Z,97194.69
2023-03-14T08:29:36.252Z,97199.94
2023-03-14T08:32:03.058Z,97199.81
2023-03-14T08:34:29.709Z,97195.91
2023-03-14T08:36:56.376Z,97211.88
2023-03-14T08:39:23.251Z,97212.97
2023-03-14T08:41:50.755Z,97205.75
2023-03-14T08:44:20.123Z,97205.69
2023-03-14T08:46:48.821Z,97203.41
2023-03-14T08:49:15.555Z,97206.53
2023-03-14T08:51:42.286Z,97199.44
2023-03-14T08:54:11.421Z,97207.25
2023-03-14T08:56:37.988Z,97206.41
2023-03-14T08:59:04.604Z,97216.78
2023-03-14T09:01:31.282Z,97225.53
2023-03-14T09:03:59.248Z,97229.56
2023-03-14T09:06:25.877Z,97246.72
2023-03-14T09:08:52.531Z,97245.66
2023-03-14T09:11:18.979Z,97251.50
2023-03-14T09:13:45.632Z,97261.63
2023-03-14T09:16:12.269Z,97260.78
2023-03-14T09:18:38.844Z,97259.22
2023-03-14T09:21:07.770Z,97263.63
2023-03-14T09:23:34.337Z,97271.47
2023-03-14T09:26:01.223Z,97266.22
2023-03-14T09:28:27.972Z,97294.78
2023-03-14T09:30:54.822Z,97291.88
2023-03-14T09:33:21.797Z,97323.25
2023-03-14T09:35:48.505Z,97344.69
2023-03-14T09:38:16.910Z,97351.31
2023-03-14T09:40:43.493Z,97377.56
2023-03-14T09:43:14.647Z,97393.19
2023-03-14T09:45:42.723Z,97410.09
2023-03-14T09:48:16.194Z,97425.06
2023-03-14T09:50:45.614Z,97435.59
2023-03-14T09:53:16.592Z,97445.25
2023-03-14T09:55:46.461Z,97453.94
2023-03-14T09:58:15.733Z,97462.00
2023-03-14T10:00:42.369Z,97477.25
2023-03-14T10:03:23.508Z,97486.69
2023-03-14T10:05:50.225Z,97489.47
2023-03-14T10:08:16.827Z,97477.75
2023-03-14T10:10:44.787Z,97493.25
2023-03-14T10:13:47.537Z,97505.56
2023-03-14T10:16:15.640Z,97519.09
2023-03-14T10:18:46.504Z,97527.78
2023-03-14T10:21:22.028Z,97535.72
2023-03-14T10:23:50.052Z,97542.16
2023-03-14T10:26:19.926Z,97554.88
2023-03-14T10:28:48.759Z,97559.53
2023-03-14T10:31:16.287Z,97568.09
2023-03-14T10:33:42.933Z,97571.53
2023-03-14T10:36:20.906Z,97584.84
2023-03-14T10:38:47.880Z,97598.53
2023-03-14T10:41:19.914Z,97613.59
2023-03-14T10:43:51.664Z,97626.19
2023-03-14T10:46:19.790Z,97642.06
2023-03-14T10:48:46.812Z,97636.63
2023-03-14T10:51:20.445Z,97651.84
2023-03-14T10:53:50.463Z,97671.88
2023-03-14T10:56:20.923Z,97678.44
2023-03-14T10:58:49.794Z,97702.47
2023-03-14T11:01:29.937Z,97718.19
2023-03-14T11:04:02.521Z,97720.19
2023-03-14T11:06:37.453Z,97736.47
2023-03-14T11:09:12.060Z,97746.63
2023-03-14T11:11:43.792Z,97767.69
2023-03-14T11:14:23.595Z,97776.91
2023-03-14T11:16:57.672Z,97778.47
2023-03-14T11:19:36.016Z,97793.63
2023-03-14T11:22:13.240Z,97803.88
2023-03-14T11:24:54.878Z,97806.66
2023-03-14T11:27:29.640Z,97812.16
2023-03-14T11:30:03.595Z,97825.13
2023-03-14T11:32:43.611Z,97834.19
2023-03-14T11:35:18.695Z,97837.25
2023-03-14T11:37:50.386Z,97852.22
2023-03-14T11:40:20.716Z,97861.22
2023-03-14T11:42:56.893Z,97865.81
2023-03-14T11:45:30.168Z,97873.00
2023-03-14T11:48:11.026Z,97883.00
2023-03-14T11:50:39.889Z,97890.00
2023-03-14T11:53:14.425Z,97904.34
2023-03-14T11:55:43.723Z,97911.69
2023-03-14T11:58:16.900Z,97910.94
2023-03-14T12:00:45.576Z,97913.59
2023-03-14T12:03:18.607Z,97927.72
2023-03-14T12:05:58.503Z,97940.59
2023-03-14T12:08:44.593Z,97947.00
2023-03-14T12:11:17.083Z,97957.41
2023-03-14T12:13:48.566Z,97966.56
2023-03-14T12:16:33.401Z,97973.69
2023-03-14T12:19:35.114Z,97982.50
2023-03-14T12:22:09.681Z,97993.69
2023-03-14T12:24:38.271Z,97993.63
2023-03-14T12:27:07.995Z,98006.81
2023-03-14T12:30:01.127Z,98019.03
2023-03-14T12:32:29.007Z,98031.47
2023-03-14T12:34:55.612Z,98035.72
2023-03-14T12:37:35.932Z,98040.78
2023-03-14T12:40:19.798Z,98045.59
2023-03-14T12:42:57.394Z,98048.19
2023-03-14T12:45:28.395Z,98062.97
2023-03-14T12:48:02.266Z,98063.44
2023-03-14T12:50:38.556Z,98080.47
2023-03-14T12:53:41.542Z,98081.13
2023-03-14T12:56:22.114Z,98082.97
2023-03-14T12:59:05.352Z,98105.78
2023-03-14T13:01:35.032Z,98119.72
2023-03-14T13:04:08.440Z,98129.38
2023-03-14T13:06:53.300Z,98145.66
2023-03-14T13:09:59.612Z,98160.16
2023-03-14T13:12:35.763Z,98165.16
2023-03-14T13:15:04.997Z,98178.31
2023-03-14T13:17:37.150Z,98180.81
2023-03-14T13:20:13.975Z,98186.34
2023-03-14T13:22:48.037Z,98193.00
2023-03-14T13:25:14.736Z,98202.19
2023-03-14T13:27:42.706Z,98204.97
2023-03-14T13:30:22.080Z,98203.59
2023-03-14T13:32:51.699Z,98209.63
2023-03-14T13:35:21.463Z,98232.41
2023-03-14T13:37:57.891Z,98240.59
2023-03-14T13:40:35.692Z,98268.72
2023-03-14T13:43:05.290Z,98267.13
2023-03-14T13:45:31.895Z,98262.09
2023-03-14T13:47:59.855Z,98278.28
2023-03-14T13:50:26.479Z,98284.66
2023-03-14T13:52:57.348Z,98277.56
2023-03-14T13:55:24.288Z,98284.94
2023-03-14T13:57:53.344Z,98284.69
2023-03-14T14:00:21.892Z,98280.63
2023-03-14T14:02:49.180Z,98287.75
2023-03-14T14:05:17.551Z,98293.41
2023-03-14T14:07:45.645Z,98299.09
2023-03-14T14:10:14.535Z,98307.00
2023-03-14T14:12:45.819Z,98307.66
2023-03-14T14:15:15.494Z,98291.03
2023-03-14T14:17:45.191Z,98310.44
2023-03-14T14:20:21.637Z,98319.28
2023-03-14T14:22:48.895Z,98327.31
2023-03-14T14:25:16.733Z,98325.88
2023-03-14T14:27:47.476Z,98327.81
2023-03-14T14:30:33.154Z,98327.19
2023-03-14T14:33:18.028Z,98325.88
2023-03-14T14:35:52.832Z,98333.25
2023-03-14T14:38:20.094Z,98334.25
2023-03-14T14:40:49.126Z,98328.34
2023-03-14T14:43:19.069Z,98331.16
2023-03-14T14:45:46.421Z,98344.72
2023-03-14T14:48:14.466Z,98345.72
2023-03-14T14:50:56.044Z,98352.38
2023-03-14T14:53:29.514Z,98370.84
2023-03-14T14:55:58.383Z,98377.28
2023-03-14T14:58:27.526Z,98392.16
2023-03-14T15:00:58.238Z,98398.22
2023-03-14T15:03:28.524Z,98413.03
2023-03-14T15:05:56.770Z,98420.16
2023-03-14T15:08:24.647Z,98436.59
2023-03-14T15:10:51.297Z,98431.91
2023-03-14T15:13:17.905Z,98448.06
2023-03-14T15:15:45.240Z,98453.59
2023-03-14T15:18:14.709Z,98468.91
2023-03-14T15:20:41.295Z,98465.84
2023-03-14T15:23:13.223Z,98471.88
2023-03-14T15:25:54.471Z,98479.75
2023-03-14T15:28:23.544Z,98488.16
2023-03-14T15:30:52.591Z,98498.13
2023-03-14T15:33:19.896Z,98504.44
2023-03-14T15:35:47.648Z,98504.66
2023-03-14T15:38:17.289Z,98513.47
2023-03-14T15:40:43.994Z,98518.75
2023-03-14T15:43:10.570Z,98529.06
2023-03-14T15:45:37.836Z,98532.56
2023-03-14T15:48:05.259Z,98544.25
2023-03-14T15:50:32.210Z,98524.31
2023-03-14T15:52:58.806Z,98554.06
2023-03-14T15:55:26.861Z,98555.25
2023-03-14T15:57:53.757Z,98551.63
2023-03-14T16:00:21.651Z,98570.03
2023-03-14T16:02:48.302Z,98571.50
2023-03-14T16:05:15.427Z,98570.28
2023-03-14T16:07:42.104Z,98584.41
2023-03-14T16:10:11.279Z,98590.56
2023-03-14T16:12:39.241Z,98605.41
2023-03-14T16:15:07.261Z,98594.22
2023-03-14T16:17:34.143Z,98606.13
2023-03-14T16:20:01.041Z,98613.56
2023-03-14T16:22:27.740Z,98618.66
2023-03-14T16:24:54.329Z,98626.13
2023-03-14T16:27:20.950Z,98638.88
2023-03-14T16:29:48.955Z,98642.28
2023-03-14T16:32:15.641Z,98646.09
2023-03-14T16:34:42.435Z,98658.25
2023-03-14T16:37:09.570Z,98674.88
2023-03-14T16:42:23.755Z,98677.28
2023-03-14T16:44:51.751Z,98679.47
2023-03-14T16:47:18.333Z,98696.53
2023-03-14T16:49:45.004Z,98708.75
2023-03-14T16:52:11.825Z,98706.91
2023-03-14T16:54:38.583Z,98711.47
2023-03-14T16:57:05.260Z,98715.81
2023-03-14T16:59:31.823Z,98725.38
2023-03-14T17:01:59.902Z,98729.38
2023-03-14T17:04:26.371Z,98728.75
2023-03-14T17:06:52.998Z,98738.16
2023-03-14T17:09:19.818Z,98744.09
2023-03-14T17:11:46.395Z,98745.41
2023-03-14T17:14:12.972Z,98754.59
2023-03-14T17:16:39.627Z,98760.38
2023-03-14T17:19:07.701Z,98767.50
2023-03-14T17:21:34.307Z,98781.91
2023-03-14T17:24:00.942Z,98776.91
2023-03-14T17:26:27.697Z,98783.75
2023-03-14T17:28:54.278Z,98796.84
2023-03-14T17:31:21.073Z,98807.78
2023-03-14T17:33:47.746Z,98815.75
2023-03-14T17:36:15.817Z,98819.59
2023-03-14T17:38:42.534Z,98834.41
2023-03-14T17:41:10.618Z,98841.25
2023-03-14T17:43:37.553Z,98846.72
2023-03-14T17:46:06.971Z,98858.66
2023-03-14T17:48:33.570Z,98868.19
2023-03-14T17:51:02.151Z,98869.75
2023-03-14T17:53:30.683Z,98870.34
2023-03-14T17:55:57.904Z,98878.66
2023-03-14T17:58:24.507Z,98881.66
2023-03-14T18:00:51.133Z,98886.19
2023-03-14T18:03:17.743Z,98901.94
2023-03-14T18:05:44.351Z,98900.78
2023-03-14T18:08:13.415Z,98913.19
2023-03-14T18:10:41.520Z,98909.81
2023-03-14T18:13:08.621Z,98921.72
2023-03-14T18:15:35.318Z,98929.44
2023-03-14T18:18:01.922Z,98937.75
2023-03-14T18:20:28.594Z,98935.72
2023-03-14T18:22:55.254Z,98939.50
2023-03-14T18:25:21.860Z,98951.56
2023-03-14T18:27:49.781Z,98955.31
2023-03-14T18:30:16.580Z,98958.81
2023-03-14T18:32:43.269Z,98957.16
2023-03-14T18:35:09.854Z,98967.91
2023-03-14T18:37:36.880Z,98973.69
2023-03-14T18:40:03.828Z,98973.13
2023-03-14T18:42:30.425Z,98976.09
2023-03-14T18:44:58.416Z,98978.78
2023-03-14T18:47:25.018Z,98992.53
2023-03-14T18:49:51.882Z,98996.06
2023-03-14T18:52:18.929Z,98995.31
2023-03-14T18:54:45.493Z,99016.78
2023-03-14T18:57:12.055Z,99007.69
2023-03-14T18:59:38.668Z,99013.00
2023-03-14T19:02:09.535Z,99006.91
2023-03-14T19:04:36.184Z,99017.34
2023-03-14T19:07:02.597Z,99008.75
2023-03-14T19:09:29.422Z,99024.41
2023-03-14T19:11:55.983Z,99028.75
2023-03-14T19:14:22.825Z,99042.88
2023-03-14T19:16:49.525Z,99045.09
2023-03-14T19:19:17.650Z,99056.97
2023-03-14T19:21:44.327Z,99057.53
2023-03-14T19:24:16.600Z,99061.88
2023-03-14T19:26:43.394Z,99056.59
2023-03-14T19:29:10.472Z,99068.06
2023-03-14T19:31:37.157Z,99081.38
2023-03-14T19:34:04.044Z,99072.16
2023-03-14T19:36:34.064Z,99090.22
2023-03-14T19:39:01.532Z,99091.41
2023-03-14T19:41:28.996Z,99091.94
2023-03-14T19:43:59.168Z,99103.94
2023-03-14T19:46:26.363Z,99088.28
2023-03-14T19:48:52.971Z,99110.13
2023-03-14T19:51:20.059Z,99110.75
2023-03-14T19:53:49.099Z,99100.94
2023-03-14T19:56:15.685Z,99116.44
2023-03-14T19:58:45.082Z,99118.31
2023-03-14T20:01:11.958Z,99121.88
2023-03-14T20:03:38.704Z,99128.41
2023-03-14T20:06:06.012Z,99133.66
2023-03-14T20:08:32.643Z,99140.72
2023-03-14T20:11:04.032Z,99135.41
2023-03-14T20:13:30.706Z,99149.63
2023-03-14T20:15:57.257Z,99148.41
2023-03-14T20:18:24.003Z,99156.84
2023-03-14T20:20:50.698Z,99141.94
2023-03-14T20:23:17.101Z,99157.72
2023-03-14T20:25:43.890Z,99149.78
2023-03-14T20:28:14.182Z,99166.34
2023-03-14T20:30:43.647Z,99153.88
2023-03-14T20:33:12.436Z,99171.91
2023-03-14T20:35:44.849Z,99152.22
2023-03-14T20:38:11.634Z,99178.41
2023-03-14T20:40:38.368Z,99179.56
2023-03-14T20:43:05.019Z,99182.78
2023-03-14T20:45:33.051Z,99184.09
2023-03-14T20:47:59.616Z,99182.78
2023-03-14T20:50:26.303Z,99185.31
2023-03-14T20:52:55.520Z,99189.84
2023-03-14T20:55:22.253Z,99192.25
2023-03-14T20:57:48.876Z,99203.59
2023-03-14T21:00:16.097Z,99199.22
2023-03-14T21:02:44.001Z,99196.69
2023-03-14T21:05:10.837Z,99199.00
2023-03-14T21:07:37.847Z,99198.69
2023-03-14T21:10:05.076Z,99199.78
2023-03-14T21:12:31.797Z,99200.50
2023-03-14T21:14:58.394Z,99205.59
2023-03-14T21:17:25.209Z,99198.34
2023-03-14T21:19:53.093Z,99205.63
2023-03-14T21:22:19.642Z,99212.69
2023-03-14T21:24:46.438Z,99213.31
2023-03-14T21:27:12.974Z,99213.63
2023-03-14T21:29:39.669Z,99216.84
2023-03-14T21:32:06.450Z,99215.84
2023-03-14T21:34:33.397Z,99223.06
2023-03-14T21:37:01.342Z,99223.09
2023-03-14T21:39:28.351Z,99221.06
2023-03-14T21:41:55.006Z,99230.09
2023-03-14T21:44:21.555Z,99232.28
2023-03-14T21:46:48.799Z,99237.00
2023-03-14T21:49:16.867Z,99237.31
2023-03-14T21:51:44.345Z,99228.22
2023-03-14T21:54:12.792Z,99229.19
2023-03-14T21:56:39.381Z,99240.38
2023-03-14T21:59:06.155Z,99241.47
2023-03-14T22:01:32.847Z,99241.84
2023-03-14T22:03:59.700Z,99248.97
2023-03-14T22:06:27.306Z,99250.56
2023-03-14T22:08:54.353Z,99256.47
2023-03-14T22:11:22.570Z,99258.81
2023-03-14T22:13:49.216Z,99249.19
2023-03-14T22:16:16.012Z,99256.66
2023-03-14T22:18:42.637Z,99252.25
2023-03-14T22:21:09.185Z,99255.22
2023-03-14T22:23:35.759Z,99262.50
2023-03-14T22:26:02.337Z,99266.53
2023-03-14T22:28:30.288Z,99262.28
2023-03-14T22:30:57.029Z,99256.31
2023-03-14T22:33:23.800Z,99265.03
2023-03-14T22:35:52.101Z,99255.72
2023-03-14T22:38:19.037Z,99265.09
2023-03-14T22:40:45.779Z,99256.28
2023-03-14T22:43:12.450Z,99267.09
2023-03-14T22:45:40.452Z,99267.75
2023-03-14T22:48:07.139Z,99270.03
2023-03-14T22:50:34.009Z,99264.97
2023-03-14T22:53:00.582Z,99266.59
2023-03-14T22:55:27.237Z,99269.28
2023-03-14T22:57:54.235Z,99281.09
2023-03-14T23:00:21.376Z,99272.91
2023-03-14T23:02:49.729Z,99275.25
2023-03-14T23:05:16.617Z,99278.16
2023-03-14T23:07:43.286Z,99288.25
2023-03-14T23:10:11.582Z,99284.88
2023-03-14T23:12:38.130Z,99285.19
2023-03-14T23:15:05.233Z,99294.19
2023-03-14T23:17:31.967Z,99299.88
2023-03-14T23:19:59.864Z,99280.66
2023-03-14T23:22:26.406Z,99291.25
2023-03-14T23:24:53.045Z,99291.50
2023-03-14T23:27:19.611Z,99297.16
2023-03-14T23:29:46.637Z,99293.78
2023-03-14T23:32:13.455Z,99290.47
2023-03-14T23:34:40.133Z,99294.19
2023-03-14T23:37:08.192Z,99285.88
2023-03-14T23:39:35.085Z,99278.50
2023-03-14T23:42:01.630Z,99294.19
2023-03-14T23:44:29.034Z,99288.09
2023-03-14T23:46:55.622Z,99283.88
2023-03-14T23:49:22.310Z,99297.47
2023-03-14T23:51:49.491Z,99295.63
2023-03-14T23:54:17.483Z,99298.06
2023-03-14T23:56:44.065Z,99304.59
2023-03-14T23:59:12.113Z,99312.16
